createdAt,value
2023-08-17T00:02:18.025Z,21.60
2023-08-17T00:04:44.928Z,21.60
2023-08-17T00:07:12.372Z,21.60
2023-08-17T00:09:40.502Z,21.60
2023-08-17T00:12:08.025Z,21.50
2023-08-17T00:14:35.069Z,21.50
2023-08-17T00:17:02.039Z,21.40
2023-08-17T00:19:29.052Z,21.40
2023-08-17T00:21:56.557Z,21.40
2023-08-17T00:24:24.583Z,21.30
2023-08-17T00:26:51.528Z,21.30
2023-08-17T00:29:18.475Z,21.30
2023-08-17T00:31:45.467Z,21.30
2023-08-17T00:34:13.478Z,21.40
2023-08-17T00:36:40.379Z,21.40
2023-08-17T00:39:07.602Z,21.40
2023-08-17T00:41:34.609Z,21.40
2023-08-17T00:44:01.906Z,21.30
2023-08-17T00:46:29.842Z,21.30
2023-08-17T00:48:59.238Z,21.20
2023-08-17T00:51:27.214Z,21.20
2023-08-17T00:53:57.066Z,21.10
2023-08-17T00:56:24.186Z,21.10
2023-08-17T00:58:51.958Z,21.10
2023-08-17T01:01:20.924Z,21.10
2023-08-17T01:03:47.981Z,21.00
2023-08-17T01:06:16.861Z,21.00
2023-08-17T01:08:45.495Z,21.00
2023-08-17T01:11:26.389Z,20.90
2023-08-17T01:14:03.371Z,20.90
2023-08-17T01:16:54.195Z,20.90
2023-08-17T01:19:31.030Z,20.90
2023-08-17T01:22:09.553Z,20.90
2023-08-17T01:24:36.493Z,20.90
2023-08-17T01:27:03.514Z,20.90
2023-08-17T01:29:30.516Z,20.80
2023-08-17T01:32:19.070Z,20.80
2023-08-17T01:35:02.657Z,20.80
2023-08-17T01:37:32.624Z,20.80
2023-08-17T01:40:00.827Z,20.80
2023-08-17T01:42:28.364Z,20.80
2023-08-17T01:44:55.597Z,20.70
2023-08-17T01:47:23.689Z,20.70
2023-08-17T01:49:51.521Z,20.70
2023-08-17T01:52:18.436Z,20.70
2023-08-17T01:54:45.279Z,20.70
2023-08-17T01:57:13.346Z,20.60
2023-08-17T01:59:40.294Z,20.60
2023-08-17T02:02:07.345Z,20.60
2023-08-17T02:04:34.347Z,20.50
2023-08-17T02:07:01.231Z,20.50
2023-08-17T02:09:28.101Z,20.50
2023-08-17T02:11:54.952Z,20.60
2023-08-17T02:14:22.086Z,20.40
2023-08-17T02:16:50.164Z,20.40
2023-08-17T02:19:17.399Z,20.40
2023-08-17T02:21:44.455Z,20.40
2023-08-17T02:24:11.304Z,20.40
2023-08-17T02:26:39.503Z,20.40
2023-08-17T02:29:06.555Z,20.30
2023-08-17T02:31:33.581Z,20.30
2023-08-17T02:34:06.042Z,20.30
2023-08-17T02:36:34.478Z,20.30
2023-08-17T02:39:04.365Z,20.30
2023-08-17T02:41:33.141Z,20.40
2023-08-17T02:44:00.074Z,20.40
2023-08-17T02:46:26.963Z,20.40
2023-08-17T02:48:54.298Z,20.40
2023-08-17T02:51:21.340Z,20.30
2023-08-17T02:53:48.199Z,20.20
2023-08-17T02:56:15.243Z,20.30
2023-08-17T02:58:42.408Z,20.20
2023-08-17T03:01:09.730Z,20.20
2023-08-17T03:03:36.775Z,20.20
2023-08-17T03:06:04.353Z,20.20
2023-08-17T03:08:31.242Z,20.20
2023-08-17T03:10:58.199Z,20.20
2023-08-17T03:13:25.262Z,20.10
2023-08-17T03:15:52.176Z,20.20
2023-08-17T03:18:19.158Z,20.20
2023-08-17T03:20:47.173Z,20.20
2023-08-17T03:23:14.188Z,20.20
2023-08-17T03:25:41.465Z,20.20
2023-08-17T03:28:08.481Z,20.20
2023-08-17T03:30:35.822Z,20.20
2023-08-17T03:33:03.154Z,20.20
2023-08-17T03:35:32.344Z,20.20
2023-08-17T03:37:59.300Z,20.20
2023-08-17T03:40:27.424Z,20.20
2023-08-17T03:42:54.292Z,20.20
2023-08-17T03:45:21.549Z,20.20
2023-08-17T03:47:51.034Z,20.10
2023-08-17T03:50:18.020Z,20.20
2023-08-17T03:52:44.892Z,20.20
2023-08-17T03:55:11.968Z,20.20
2023-08-17T03:57:39.789Z,20.20
2023-08-17T04:00:08.255Z,20.20
2023-08-17T04:02:40.618Z,20.20
2023-08-17T04:05:08.545Z,20.30
2023-08-17T04:07:35.636Z,20.30
2023-08-17T04:10:06.421Z,20.30
2023-08-17T04:12:33.276Z,20.30
2023-08-17T04:15:00.276Z,20.30
2023-08-17T04:17:28.031Z,20.40
2023-08-17T04:19:55.410Z,20.40
2023-08-17T04:22:22.640Z,20.40
2023-08-17T04:24:49.632Z,20.40
2023-08-17T04:27:16.939Z,20.40
2023-08-17T04:29:45.151Z,20.40
2023-08-17T04:32:16.804Z,20.40
2023-08-17T04:34:46.131Z,20.40
2023-08-17T04:37:15.809Z,20.40
2023-08-17T04:39:44.479Z,20.40
2023-08-17T04:42:16.064Z,20.40
2023-08-17T04:44:42.938Z,20.40
2023-08-17T04:47:10.441Z,20.40
2023-08-17T04:49:37.433Z,20.40
2023-08-17T04:52:05.188Z,20.50
2023-08-17T04:54:32.109Z,20.50
2023-08-17T04:56:59.030Z,20.50
2023-08-17T04:59:26.023Z,20.50
2023-08-17T05:01:55.478Z,20.50
2023-08-17T05:04:22.475Z,20.50
2023-08-17T05:06:49.304Z,20.50
2023-08-17T05:09:16.189Z,20.60
2023-08-17T05:11:43.487Z,20.60
2023-08-17T05:14:11.646Z,20.70
2023-08-17T05:16:39.133Z,20.60
2023-08-17T05:19:06.240Z,20.60
2023-08-17T05:21:35.995Z,20.70
2023-08-17T05:24:03.994Z,20.60
2023-08-17T05:26:30.947Z,20.60
2023-08-17T05:28:57.830Z,20.60
2023-08-17T05:31:25.965Z,20.70
2023-08-17T05:33:53.941Z,20.70
2023-08-17T05:36:23.613Z,20.70
2023-08-17T05:38:50.581Z,20.80
2023-08-17T05:41:18.616Z,20.80
2023-08-17T05:43:45.633Z,20.80
2023-08-17T05:46:13.249Z,20.80
2023-08-17T05:48:40.669Z,20.90
2023-08-17T05:51:07.799Z,20.90
2023-08-17T05:53:34.739Z,20.90
2023-08-17T05:56:01.577Z,21.00
2023-08-17T05:58:28.542Z,21.00
2023-08-17T06:00:55.483Z,21.00
2023-08-17T06:03:22.580Z,21.00
2023-08-17T06:05:49.429Z,21.10
2023-08-17T06:08:16.342Z,21.10
2023-08-17T06:10:43.195Z,21.10
2023-08-17T06:13:10.319Z,21.20
2023-08-17T06:15:37.158Z,21.20
2023-08-17T06:18:04.282Z,21.20
2023-08-17T06:20:31.462Z,21.30
2023-08-17T06:22:59.408Z,21.30
2023-08-17T06:25:27.730Z,21.30
2023-08-17T06:27:54.608Z,21.40
2023-08-17T06:30:21.530Z,21.40
2023-08-17T06:32:48.481Z,21.40
2023-08-17T06:35:15.418Z,21.40
2023-08-17T06:37:42.472Z,21.40
2023-08-17T06:40:12.589Z,21.50
2023-08-17T06:42:39.480Z,21.40
2023-08-17T06:45:07.119Z,21.50
2023-08-17T06:47:34.052Z,21.60
2023-08-17T06:50:00.934Z,21.60
2023-08-17T06:52:27.906Z,21.60
2023-08-17T06:54:54.831Z,21.70
2023-08-17T06:57:22.870Z,21.60
2023-08-17T06:59:49.965Z,21.50
2023-08-17T07:02:17.056Z,21.60
2023-08-17T07:04:44.052Z,21.70
2023-08-17T07:07:11.043Z,21.70
2023-08-17T07:09:37.957Z,21.70
2023-08-17T07:12:05.118Z,21.80
2023-08-17T07:14:31.998Z,21.80
2023-08-17T07:16:58.846Z,21.80
2023-08-17T07:19:36.052Z,21.80
2023-08-17T07:22:12.920Z,21.90
2023-08-17T07:24:39.742Z,21.90
2023-08-17T07:27:06.653Z,21.90
2023-08-17T07:29:33.673Z,22.00
2023-08-17T07:32:03.052Z,22.00
2023-08-17T07:34:32.143Z,22.00
2023-08-17T07:36:59.385Z,22.10
2023-08-17T07:39:26.429Z,22.10
2023-08-17T07:41:53.332Z,22.10
2023-08-17T07:44:20.228Z,22.10
2023-08-17T07:46:50.427Z,22.10
2023-08-17T07:49:30.699Z,22.10
2023-08-17T07:52:00.628Z,22.10
2023-08-17T07:54:27.697Z,22.10
2023-08-17T07:56:54.601Z,22.10
2023-08-17T07:59:21.540Z,22.10
2023-08-17T08:01:48.486Z,22.10
2023-08-17T08:04:15.518Z,22.10
2023-08-17T08:06:42.901Z,22.10
2023-08-17T08:09:09.876Z,22.10
2023-08-17T08:11:36.762Z,22.10
2023-08-17T08:14:03.828Z,22.10
2023-08-17T08:16:33.476Z,22.10
2023-08-17T08:19:00.436Z,22.10
2023-08-17T08:21:28.877Z,22.10
2023-08-17T08:23:55.809Z,22.10
2023-08-17T08:26:23.145Z,22.10
2023-08-17T08:28:50.236Z,22.10
2023-08-17T08:31:17.298Z,22.00
2023-08-17T08:33:44.951Z,22.10
2023-08-17T08:36:12.117Z,22.10
2023-08-17T08:38:39.071Z,22.20
2023-08-17T08:41:09.565Z,22.30
2023-08-17T08:43:36.896Z,22.30
2023-08-17T08:46:04.909Z,22.40
2023-08-17T08:48:32.999Z,22.50
2023-08-17T08:51:01.931Z,22.70
2023-08-17T08:53:52.126Z,22.80
2023-08-17T08:56:21.761Z,22.90
2023-08-17T08:58:54.692Z,23.00
2023-08-17T09:01:22.736Z,23.20
2023-08-17T09:03:51.320Z,23.20
2023-08-17T09:06:20.522Z,23.40
2023-08-17T09:08:49.300Z,23.50
2023-08-17T09:11:17.092Z,23.70
2023-08-17T09:13:44.040Z,23.90
2023-08-17T09:16:11.031Z,24.00
2023-08-17T09:18:39.452Z,24.00
2023-08-17T09:21:06.561Z,24.00
2023-08-17T09:23:36.172Z,24.10
2023-08-17T09:26:09.870Z,24.30
2023-08-17T09:28:40.345Z,24.50
2023-08-17T09:31:07.324Z,24.50
2023-08-17T09:33:34.389Z,24.60
2023-08-17T09:36:01.703Z,24.80
2023-08-17T09:38:29.575Z,25.00
2023-08-17T09:40:58.035Z,25.20
2023-08-17T09:43:30.220Z,25.30
2023-08-17T09:45:58.395Z,25.50
2023-08-17T09:48:26.330Z,25.60
2023-08-17T09:50:53.284Z,25.60
2023-08-17T09:53:20.707Z,25.60
2023-08-17T09:55:48.127Z,25.70
2023-08-17T09:58:18.768Z,25.80
2023-08-17T10:00:51.831Z,25.80
2023-08-17T10:03:21.219Z,25.90
2023-08-17T10:06:04.894Z,26.10
2023-08-17T10:08:34.504Z,26.20
2023-08-17T10:11:03.839Z,26.30
2023-08-17T10:13:43.456Z,26.40
2023-08-17T10:16:16.191Z,26.50
2023-08-17T10:18:57.320Z,26.60
2023-08-17T10:21:30.280Z,26.80
2023-08-17T10:23:58.268Z,26.80
2023-08-17T10:26:28.841Z,26.90
2023-08-17T10:29:00.264Z,27.00
2023-08-17T10:31:30.187Z,27.00
2023-08-17T10:33:58.944Z,27.10
2023-08-17T10:36:26.822Z,27.30
2023-08-17T10:39:20.341Z,27.40
2023-08-17T10:41:49.228Z,27.60
2023-08-17T10:44:17.239Z,27.80
2023-08-17T10:46:46.695Z,27.90
2023-08-17T10:49:27.077Z,28.00
2023-08-17T10:52:09.188Z,28.10
2023-08-17T10:54:40.108Z,28.10
2023-08-17T10:57:28.792Z,28.20
2023-08-17T11:00:20.735Z,28.40
2023-08-17T11:03:01.757Z,28.60
2023-08-17T11:05:54.413Z,28.60
2023-08-17T11:11:13.948Z,28.70
2023-08-17T11:13:42.476Z,28.80
2023-08-17T11:16:11.369Z,28.90
2023-08-17T11:18:39.033Z,29.00
2023-08-17T11:21:10.478Z,29.20
2023-08-17T11:23:38.300Z,29.40
2023-08-17T11:26:06.042Z,29.60
2023-08-17T11:28:42.555Z,29.70
2023-08-17T11:31:11.803Z,29.90
2023-08-17T11:33:40.448Z,30.00
2023-08-17T11:36:09.147Z,30.10
2023-08-17T11:38:44.844Z,30.10
2023-08-17T11:43:44.444Z,30.20
2023-08-17T11:46:12.727Z,30.00
2023-08-17T11:48:39.707Z,29.90
2023-08-17T11:51:06.942Z,29.90
2023-08-17T11:53:39.910Z,30.20
2023-08-17T11:56:09.956Z,31.40
2023-08-17T11:58:57.972Z,32.60
2023-08-17T12:01:25.322Z,33.30
2023-08-17T12:03:52.321Z,33.70
2023-08-17T12:06:19.310Z,34.00
2023-08-17T12:08:48.617Z,33.90
2023-08-17T12:11:19.125Z,33.80
2023-08-17T12:13:53.806Z,33.60
2023-08-17T12:16:21.741Z,33.50
2023-08-17T12:18:53.069Z,33.20
2023-08-17T12:21:24.313Z,33.10
2023-08-17T12:23:51.864Z,33.00
2023-08-17T12:26:25.078Z,32.90
2023-08-17T12:28:52.049Z,32.70
2023-08-17T12:31:24.505Z,32.70
2023-08-17T12:33:52.634Z,32.70
2023-08-17T12:36:21.513Z,32.50
2023-08-17T12:38:49.278Z,32.50
2023-08-17T12:41:16.663Z,32.70
2023-08-17T12:43:43.559Z,32.80
2023-08-17T12:46:12.014Z,32.80
2023-08-17T12:48:39.951Z,32.90
2023-08-17T12:51:07.025Z,33.10
2023-08-17T12:53:33.966Z,32.90
2023-08-17T12:56:01.009Z,32.70
2023-08-17T12:58:27.963Z,32.50
2023-08-17T13:00:55.907Z,32.10
2023-08-17T13:03:23.047Z,31.80
2023-08-17T13:05:50.176Z,31.40
2023-08-17T13:08:17.211Z,31.20
2023-08-17T13:10:44.260Z,31.00
2023-08-17T13:13:11.169Z,30.90
2023-08-17T13:15:38.530Z,30.80
2023-08-17T13:18:06.040Z,30.70
2023-08-17T13:20:33.018Z,30.80
2023-08-17T13:22:59.962Z,31.00
2023-08-17T13:25:26.849Z,31.00
2023-08-17T13:27:53.713Z,31.10
2023-08-17T13:30:20.597Z,31.20
2023-08-17T13:32:47.726Z,31.40
2023-08-17T13:35:15.404Z,31.50
2023-08-17T13:37:42.598Z,31.60
2023-08-17T13:40:09.993Z,31.70
2023-08-17T13:42:37.838Z,31.90
2023-08-17T13:45:05.162Z,31.90
2023-08-17T13:47:32.110Z,32.10
2023-08-17T13:49:59.463Z,32.20
2023-08-17T13:52:26.860Z,32.20
2023-08-17T13:54:54.148Z,32.30
2023-08-17T13:57:21.078Z,32.40
2023-08-17T13:59:48.070Z,32.50
2023-08-17T14:02:15.028Z,32.50
2023-08-17T14:04:41.943Z,32.50
2023-08-17T14:07:08.800Z,32.70
2023-08-17T14:09:35.813Z,32.70
2023-08-17T14:12:02.895Z,32.70
2023-08-17T14:14:29.865Z,32.60
2023-08-17T14:16:57.998Z,32.60
2023-08-17T14:19:24.981Z,32.50
2023-08-17T14:21:52.442Z,32.50
2023-08-17T14:24:19.354Z,32.40
2023-08-17T14:26:46.259Z,32.40
2023-08-17T14:29:13.191Z,32.30
2023-08-17T14:31:40.260Z,32.20
2023-08-17T14:34:07.350Z,32.00
2023-08-17T14:36:34.502Z,31.90
2023-08-17T14:39:01.397Z,31.80
2023-08-17T14:41:33.126Z,31.70
2023-08-17T14:44:02.591Z,31.50
2023-08-17T14:46:30.205Z,31.40
2023-08-17T14:48:57.263Z,31.40
2023-08-17T14:51:31.080Z,31.30
2023-08-17T14:53:58.616Z,31.30
2023-08-17T14:56:25.693Z,31.20
2023-08-17T14:58:52.605Z,31.20
2023-08-17T15:01:19.714Z,31.20
2023-08-17T15:03:48.181Z,31.10
2023-08-17T15:06:28.512Z,31.10
2023-08-17T15:09:00.501Z,31.10
2023-08-17T15:11:29.880Z,31.20
2023-08-17T15:13:56.669Z,31.30
2023-08-17T15:16:28.271Z,31.20
2023-08-17T15:18:55.759Z,31.20
2023-08-17T15:21:22.994Z,31.00
2023-08-17T15:23:50.012Z,30.90
2023-08-17T15:26:16.894Z,30.70
2023-08-17T15:28:43.859Z,30.50
2023-08-17T15:31:14.098Z,30.40
2023-08-17T15:33:41.545Z,30.10
2023-08-17T15:36:08.620Z,30.10
2023-08-17T15:38:35.631Z,29.90
2023-08-17T15:41:02.582Z,29.80
2023-08-17T15:43:29.505Z,29.70
2023-08-17T15:45:56.438Z,29.60
2023-08-17T15:48:23.446Z,29.50
2023-08-17T15:50:50.417Z,29.30
2023-08-17T15:53:17.345Z,29.20
2023-08-17T15:55:44.342Z,29.10
2023-08-17T15:58:11.375Z,29.00
2023-08-17T16:00:38.614Z,28.90
2023-08-17T16:03:05.907Z,28.80
2023-08-17T16:05:32.793Z,28.80
2023-08-17T16:08:00.452Z,28.60
2023-08-17T16:10:28.066Z,28.50
2023-08-17T16:12:54.951Z,28.50
2023-08-17T16:15:21.900Z,28.40
2023-08-17T16:17:48.715Z,28.40
2023-08-17T16:20:15.722Z,28.40
2023-08-17T16:22:44.203Z,28.40
2023-08-17T16:25:11.173Z,28.40
2023-08-17T16:27:39.146Z,28.40
2023-08-17T16:30:07.314Z,28.40
2023-08-17T16:32:34.172Z,28.50
2023-08-17T16:35:01.053Z,28.60
2023-08-17T16:37:28.242Z,28.70
2023-08-17T16:39:55.418Z,28.90
2023-08-17T16:42:22.263Z,29.00
2023-08-17T16:44:49.199Z,29.10
2023-08-17T16:47:19.713Z,29.20
2023-08-17T16:49:48.731Z,29.30
2023-08-17T16:52:18.722Z,29.40
2023-08-17T16:54:48.122Z,29.50
2023-08-17T16:57:15.768Z,29.50
2023-08-17T16:59:42.650Z,29.40
2023-08-17T17:02:14.371Z,29.30
2023-08-17T17:04:43.086Z,29.30
2023-08-17T17:07:10.142Z,29.10
2023-08-17T17:09:37.079Z,29.00
2023-08-17T17:12:07.138Z,29.00
2023-08-17T17:14:34.057Z,28.80
2023-08-17T17:17:00.940Z,28.70
2023-08-17T17:19:27.924Z,28.50
2023-08-17T17:21:55.394Z,28.40
2023-08-17T17:24:22.336Z,28.30
2023-08-17T17:26:51.364Z,28.30
2023-08-17T17:29:18.284Z,28.20
2023-08-17T17:31:45.159Z,28.10
2023-08-17T17:34:12.109Z,28.00
2023-08-17T17:36:39.051Z,27.90
2023-08-17T17:39:06.367Z,27.80
2023-08-17T17:41:33.367Z,27.70
2023-08-17T17:44:00.177Z,27.70
2023-08-17T17:46:27.197Z,27.60
2023-08-17T17:48:54.146Z,27.60
2023-08-17T17:51:22.182Z,27.60
2023-08-17T17:53:49.067Z,27.50
2023-08-17T17:56:16.030Z,27.40
2023-08-17T17:58:42.912Z,27.40
2023-08-17T18:01:10.021Z,27.40
2023-08-17T18:03:37.779Z,27.30
2023-08-17T18:06:04.880Z,27.30
2023-08-17T18:08:33.215Z,27.20
2023-08-17T18:11:00.164Z,27.20
2023-08-17T18:13:27.082Z,27.20
2023-08-17T18:15:53.941Z,27.10
2023-08-17T18:18:20.829Z,27.00
2023-08-17T18:20:47.684Z,27.00
2023-08-17T18:23:15.767Z,26.90
2023-08-17T18:25:46.317Z,26.80
2023-08-17T18:28:13.438Z,26.80
2023-08-17T18:30:40.433Z,26.80
2023-08-17T18:33:07.560Z,26.80
2023-08-17T18:35:34.599Z,26.70
2023-08-17T18:38:01.497Z,26.60
2023-08-17T18:40:28.448Z,26.60
2023-08-17T18:42:55.363Z,26.60
2023-08-17T18:45:23.492Z,26.50
2023-08-17T18:47:50.555Z,26.50
2023-08-17T18:50:17.478Z,26.40
2023-08-17T18:52:44.607Z,26.40
2023-08-17T18:55:14.205Z,26.30
2023-08-17T18:57:41.435Z,26.20
2023-08-17T19:00:12.214Z,26.30
2023-08-17T19:02:40.533Z,26.00
2023-08-17T19:05:10.805Z,26.00
2023-08-17T19:07:37.831Z,26.00
2023-08-17T19:10:05.345Z,25.90
2023-08-17T19:12:32.219Z,25.90
2023-08-17T19:14:59.081Z,25.90
2023-08-17T19:17:26.185Z,25.80
2023-08-17T19:19:53.309Z,25.80
2023-08-17T19:22:20.466Z,25.70
2023-08-17T19:24:47.366Z,25.70
2023-08-17T19:27:14.399Z,25.70
2023-08-17T19:29:41.711Z,25.60
2023-08-17T19:32:08.659Z,25.50
2023-08-17T19:34:35.539Z,25.40
2023-08-17T19:37:03.661Z,25.40
2023-08-17T19:39:30.683Z,25.30
2023-08-17T19:41:57.587Z,25.30
2023-08-17T19:44:24.613Z,25.20
2023-08-17T19:46:51.506Z,25.20
2023-08-17T19:49:18.431Z,25.20
2023-08-17T19:51:46.857Z,25.20
2023-08-17T19:54:16.104Z,25.20
2023-08-17T19:56:43.086Z,25.10
2023-08-17T19:59:10.082Z,25.00
2023-08-17T20:01:37.981Z,24.90
2023-08-17T20:04:05.584Z,24.90
2023-08-17T20:06:32.544Z,24.80
2023-08-17T20:08:59.504Z,24.70
2023-08-17T20:11:27.939Z,24.60
2023-08-17T20:13:54.884Z,24.40
2023-08-17T20:16:21.950Z,24.40
2023-08-17T20:18:49.036Z,24.30
2023-08-17T20:21:16.380Z,24.30
2023-08-17T20:23:45.064Z,24.30
2023-08-17T20:26:12.665Z,24.30
2023-08-17T20:28:40.117Z,24.30
2023-08-17T20:31:07.401Z,24.30
2023-08-17T20:33:34.415Z,24.30
2023-08-17T20:36:01.285Z,24.20
2023-08-17T20:38:28.279Z,24.00
2023-08-17T20:40:55.695Z,23.90
2023-08-17T20:43:22.644Z,23.80
2023-08-17T20:45:50.320Z,23.90
2023-08-17T20:48:17.334Z,23.90
2023-08-17T20:50:48.435Z,23.90
2023-08-17T20:53:18.389Z,24.00
2023-08-17T20:55:45.893Z,23.90
2023-08-17T20:58:12.814Z,23.80
2023-08-17T21:00:39.763Z,23.90
2023-08-17T21:03:06.951Z,23.90
2023-08-17T21:05:34.425Z,24.00
2023-08-17T21:08:02.671Z,24.00
2023-08-17T21:10:30.138Z,24.00
2023-08-17T21:12:58.175Z,23.90
2023-08-17T21:15:25.368Z,23.90
2023-08-17T21:17:52.426Z,24.00
2023-08-17T21:20:19.891Z,23.90
2023-08-17T21:22:51.495Z,23.70
2023-08-17T21:25:21.147Z,23.90
2023-08-17T21:27:48.278Z,23.90
2023-08-17T21:30:16.755Z,23.90
2023-08-17T21:32:43.908Z,24.00
2023-08-17T21:35:12.704Z,23.90
2023-08-17T21:37:41.501Z,23.90
2023-08-17T21:40:08.907Z,23.90
2023-08-17T21:42:35.862Z,23.90
2023-08-17T21:45:02.985Z,23.90
2023-08-17T21:47:30.333Z,23.90
2023-08-17T21:49:57.449Z,23.80
2023-08-17T21:52:24.438Z,23.80
2023-08-17T21:54:51.703Z,23.70
2023-08-17T21:57:18.961Z,23.70
2023-08-17T21:59:46.008Z,23.70
2023-08-17T22:02:12.978Z,23.70
2023-08-17T22:04:40.057Z,23.60
2023-08-17T22:07:06.943Z,23.60
2023-08-17T22:09:36.640Z,23.50
2023-08-17T22:12:03.728Z,23.50
2023-08-17T22:14:30.842Z,23.40
2023-08-17T22:16:58.277Z,23.40
2023-08-17T22:19:25.435Z,23.30
2023-08-17T22:21:52.643Z,23.30
2023-08-17T22:24:20.089Z,23.20
2023-08-17T22:26:47.218Z,23.20
2023-08-17T22:29:14.115Z,23.10
2023-08-17T22:31:43.662Z,23.10
2023-08-17T22:34:11.607Z,23.00
2023-08-17T22:36:38.705Z,23.00
2023-08-17T22:39:06.773Z,23.00
2023-08-17T22:41:34.363Z,23.00
2023-08-17T22:44:01.491Z,23.00
2023-08-17T22:46:28.521Z,22.90
2023-08-17T22:48:55.490Z,22.90
2023-08-17T22:51:23.448Z,22.90
2023-08-17T22:53:50.464Z,22.90
2023-08-17T22:56:17.413Z,22.80
2023-08-17T22:58:44.517Z,22.80
2023-08-17T23:01:11.757Z,22.80
2023-08-17T23:03:38.790Z,22.80
2023-08-17T23:06:05.895Z,22.80
2023-08-17T23:08:32.790Z,22.80
2023-08-17T23:11:03.510Z,22.70
2023-08-17T23:13:30.544Z,22.70
2023-08-17T23:15:57.459Z,22.60
2023-08-17T23:18:24.713Z,22.50
2023-08-17T23:20:51.575Z,22.40
2023-08-17T23:23:18.804Z,22.30
2023-08-17T23:25:45.863Z,22.20
2023-08-17T23:28:13.024Z,22.10
2023-08-17T23:30:41.310Z,22.10
2023-08-17T23:33:10.317Z,22.00
2023-08-17T23:35:39.844Z,22.00
2023-08-17T23:38:08.178Z,21.90
2023-08-17T23:40:35.268Z,21.90
2023-08-17T23:43:02.600Z,21.80
2023-08-17T23:45:29.877Z,21.70
2023-08-17T23:47:56.886Z,21.70
2023-08-17T23:50:23.946Z,21.60
2023-08-17T23:52:50.977Z,21.50
2023-08-17T23:55:18.373Z,21.50
2023-08-17T23:57:45.357Z,21.40
